Airfield :
LOGIN :

Register | Disclaimer

   EN    FR    IT 

 










Legend :    VFR   Marginal VFR   IFR   Intensive IFR   Very Intensive IFR
Visi :
Ceiling :
>= 8 km
>= 3000ft
5 to 8 km
1000 to 3000 ft
1500m to 5 km
500 to 1000 ft
800 to 1500m
200 to 500 ft
< 800m
< 200 ft
Symbols :   Thunderstorms  Fog  Heavy snow  Heavy precipitations  Wind > 20 kt
SIGMETs :     Misc.  Thunderstorms  Icing  Turbulence  Mountain Waves  Volcanic Ashes







- Airport Elevation : 146 ft
- IATA code : RKE


EKRK - Roskilde Tune

CURRENT METAR :
  • 252320Z AUTO 10004KT 1200NDV R11/P1500N R29/P1500N BR NCD 08/07 Q1013

EXPIRED METARs :
  • 252250Z AUTO 10006KT 1300NDV R11/P1500N R29/P1500N BR NCD 09/09 Q1013
  • 252220Z AUTO 12006KT 1800NDV BR NCD 09/08 Q1013
  • 252150Z AUTO 12006KT 3200NDV BR NCD 10/09 Q1013
  • 252120Z AUTO 12005KT 2900NDV BR NCD 10/09 Q1013
  • 252050Z AUTO 13006KT 2900NDV BR NCD 10/09 Q1013

TAF TAF EKRK
Valid from the 26 at 00:00 until the 26 at 09:00 UTC


252323Z 2600/2609 10008KT 4000 BR NSC
TEMPO 2600/2605 0800 BCFG VV002
BECMG 2605/2607 9999 NSW
No reported NOTAMs for that airfield.



MET'MAP, your aeronautical weather chart ! - Copyright ORBIFLY December 2007 - Disclaimer

ORBIFLY MET'MAP TEAM :

Programming & Development : Alexandra Zaïnal
Concept & Development : Baudouin d'Aumeries
Co-Development & Prog : Marc-Olivier Méhu
Technical & hardware support : Manuel Goepfert

Contact : metmap@orbifly.com




SOURCES & CREDITS :

   NOAA